createdAt,value
2019-03-31T00:03:10.934Z,9.77
2019-03-31T00:08:32.075Z,9.89
2019-03-31T00:13:19.615Z,9.34
2019-03-31T00:18:26.747Z,9.25
2019-03-31T00:23:35.098Z,7.78
2019-03-31T00:29:49.162Z,8.07
2019-03-31T00:34:57.504Z,6.42
2019-03-31T00:40:05.414Z,5.33
2019-03-31T00:45:26.581Z,4.27
2019-03-31T00:50:14.619Z,3.23
2019-03-31T00:55:22.890Z,2.30
2019-03-31T01:00:30.149Z,2.50
2019-03-31T01:05:37.412Z,3.39
2019-03-31T01:11:00.856Z,4.06
2019-03-31T01:16:01.957Z,3.91
2019-03-31T01:20:50.062Z,3.43
2019-03-31T01:26:00.481Z,3.79
2019-03-31T01:31:06.080Z,3.08
2019-03-31T01:36:26.347Z,3.02
2019-03-31T01:41:13.621Z,2.70
2019-03-31T01:46:33.836Z,2.13
2019-03-31T01:51:33.840Z,1.25
2019-03-31T01:56:21.993Z,1.02
2019-03-31T02:01:30.043Z,0.98
2019-03-31T02:06:38.299Z,1.05
2019-03-31T02:11:45.400Z,1.05
2019-03-31T02:16:54.375Z,1.10
2019-03-31T02:22:02.474Z,1.18
2019-03-31T02:27:10.771Z,1.11
2019-03-31T02:32:23.967Z,1.55
2019-03-31T02:37:38.160Z,1.63
2019-03-31T02:42:38.271Z,1.59
2019-03-31T02:47:25.485Z,1.45
2019-03-31T02:52:33.606Z,1.77
2019-03-31T02:57:42.425Z,1.80
2019-03-31T03:02:49.659Z,1.60
2019-03-31T03:08:09.801Z,1.59
2019-03-31T03:12:56.947Z,1.58
2019-03-31T03:18:18.099Z,1.74
2019-03-31T03:23:05.345Z,2.07
2019-03-31T03:28:12.619Z,1.90
2019-03-31T03:33:19.962Z,2.35
2019-03-31T03:38:39.995Z,2.25
2019-03-31T03:43:28.037Z,1.90
2019-03-31T03:48:49.151Z,1.61
2019-03-31T03:53:37.236Z,1.57
2019-03-31T03:58:58.301Z,1.62
2019-03-31T04:03:46.457Z,1.75
2019-03-31T04:09:07.601Z,1.82
2019-03-31T04:13:55.837Z,1.93
2019-03-31T04:19:17.434Z,1.98
2019-03-31T04:24:05.553Z,1.92
2019-03-31T04:29:13.635Z,1.67
2019-03-31T04:34:21.814Z,1.60
2019-03-31T04:39:29.156Z,1.37
2019-03-31T04:44:36.370Z,1.32
2019-03-31T04:49:43.701Z,1.07
2019-03-31T04:55:03.694Z,1.26
2019-03-31T04:59:51.910Z,0.89
2019-03-31T05:05:00.409Z,0.89
2019-03-31T05:10:20.515Z,0.82
2019-03-31T05:15:07.784Z,1.71
2019-03-31T05:20:29.100Z,0.92
2019-03-31T05:25:30.070Z,0.82
2019-03-31T05:30:18.551Z,0.98
2019-03-31T05:35:27.225Z,1.25
2019-03-31T05:40:33.257Z,1.28
2019-03-31T05:45:54.372Z,0.93
2019-03-31T05:50:41.763Z,0.99
2019-03-31T05:56:01.877Z,0.88
2019-03-31T06:00:49.007Z,1.06
2019-03-31T06:05:57.268Z,0.89
2019-03-31T06:11:17.498Z,0.93
2019-03-31T06:16:04.637Z,1.23
2019-03-31T06:21:28.876Z,1.03
2019-03-31T06:26:13.224Z,1.21
2019-03-31T06:31:34.287Z,1.05
2019-03-31T06:36:35.593Z,1.18
2019-03-31T06:41:22.919Z,1.00
2019-03-31T06:46:30.027Z,1.06
2019-03-31T06:51:51.102Z,1.50
2019-03-31T06:56:52.043Z,1.50
2019-03-31T07:01:40.390Z,1.26
2019-03-31T07:06:47.623Z,1.57
2019-03-31T07:12:08.789Z,1.86
2019-03-31T07:17:08.778Z,1.98
2019-03-31T07:22:10.000Z,2.81
2019-03-31T07:27:10.159Z,3.04
2019-03-31T07:32:10.225Z,3.46
2019-03-31T07:36:58.295Z,3.47
2019-03-31T07:42:19.375Z,3.54
2019-03-31T07:47:20.432Z,3.91
2019-03-31T07:52:08.553Z,3.34
2019-03-31T07:57:28.649Z,3.95
2019-03-31T08:02:15.969Z,4.05
2019-03-31T08:07:24.065Z,4.34
2019-03-31T08:17:33.217Z,5.06
2019-03-31T08:22:40.663Z,4.77
2019-03-31T08:27:48.773Z,4.29
2019-03-31T08:32:56.891Z,5.13
2019-03-31T08:38:04.987Z,4.87
2019-03-31T08:48:17.082Z,4.54
2019-03-31T08:53:27.384Z,4.20
2019-03-31T08:58:25.531Z,3.79
2019-03-31T09:03:34.099Z,3.78
2019-03-31T09:08:41.337Z,2.71
2019-03-31T09:14:01.600Z,2.57
2019-03-31T09:18:49.878Z,3.22
2019-03-31T09:24:10.156Z,2.68
2019-03-31T09:29:10.155Z,2.61
2019-03-31T09:33:58.684Z,2.64
2019-03-31T09:39:06.786Z,3.00
2019-03-31T09:44:30.252Z,2.73
2019-03-31T09:49:15.740Z,2.55
2019-03-31T09:59:27.830Z,2.15
2019-03-31T10:04:35.409Z,2.27
2019-03-31T10:09:55.403Z,2.48
2019-03-31T10:14:56.762Z,1.85
2019-03-31T10:19:47.036Z,1.26
2019-03-31T10:24:58.136Z,1.53
2019-03-31T10:29:58.294Z,1.54
2019-03-31T10:34:45.776Z,1.54
2019-03-31T10:40:05.806Z,1.47
2019-03-31T10:44:54.389Z,1.39
2019-03-31T10:50:14.520Z,1.44
2019-03-31T10:55:02.066Z,1.24
2019-03-31T11:00:22.201Z,1.45
2019-03-31T11:05:22.537Z,1.40
2019-03-31T11:10:22.617Z,1.52
2019-03-31T11:15:10.808Z,1.63
2019-03-31T11:20:19.163Z,2.06
2019-03-31T11:25:29.373Z,1.58
2019-03-31T11:30:34.385Z,2.19
2019-03-31T11:35:42.674Z,1.97
2019-03-31T11:41:02.698Z,2.13
2019-03-31T11:45:51.293Z,2.21
2019-03-31T11:51:11.471Z,2.01
2019-03-31T11:55:58.696Z,2.20
2019-03-31T12:01:06.134Z,1.76
2019-03-31T12:11:27.017Z,1.93
2019-03-31T12:21:16.029Z,2.19
2019-03-31T12:26:37.254Z,2.08
2019-03-31T12:31:38.331Z,2.38
2019-03-31T12:36:25.601Z,2.09
2019-03-31T12:41:33.827Z,1.90
2019-03-31T12:46:56.106Z,1.93
2019-03-31T12:51:41.342Z,2.12
2019-03-31T12:56:49.604Z,2.42
2019-03-31T13:01:59.856Z,2.03
2019-03-31T13:07:19.892Z,1.96
2019-03-31T13:12:21.193Z,1.95
2019-03-31T13:17:21.370Z,2.32
2019-03-31T13:22:21.512Z,2.10
2019-03-31T13:27:21.682Z,2.31
2019-03-31T13:32:23.012Z,1.91
2019-03-31T13:37:11.474Z,2.15
2019-03-31T13:42:18.660Z,2.49
2019-03-31T13:47:27.006Z,2.51
2019-03-31T13:52:36.527Z,2.67
2019-03-31T13:57:59.524Z,2.34
2019-03-31T14:02:46.009Z,1.96
2019-03-31T14:08:07.194Z,2.38
2019-03-31T14:13:08.502Z,2.22
2019-03-31T14:18:08.649Z,2.05
2019-03-31T14:23:09.722Z,1.97
2019-03-31T14:33:11.063Z,2.14
2019-03-31T14:38:12.512Z,2.19
2019-03-31T14:43:12.641Z,2.28
2019-03-31T14:47:59.842Z,1.62
2019-03-31T14:53:08.327Z,1.89
2019-03-31T14:58:16.200Z,1.86
2019-03-31T15:13:26.605Z,1.90
2019-03-31T15:18:34.067Z,1.99
2019-03-31T15:28:58.213Z,2.38
2019-03-31T15:39:08.613Z,2.33
2019-03-31T15:44:02.961Z,1.66
2019-03-31T15:49:03.111Z,2.49
2019-03-31T15:53:53.366Z,2.14
2019-03-31T15:59:13.716Z,1.75
2019-03-31T16:14:22.047Z,1.51
2019-03-31T16:19:22.379Z,1.76
2019-03-31T16:24:22.865Z,1.84
2019-03-31T16:29:10.171Z,2.02
2019-03-31T16:34:17.610Z,2.27
2019-03-31T16:44:38.870Z,2.82
2019-03-31T16:49:39.171Z,1.98
2019-03-31T16:54:27.661Z,2.09
2019-03-31T17:04:51.658Z,1.58
2019-03-31T17:14:39.893Z,1.81
2019-03-31T17:19:47.753Z,1.55
2019-03-31T17:25:08.353Z,1.86
2019-03-31T17:30:08.913Z,4.51
2019-03-31T17:34:56.423Z,2.76
2019-03-31T17:40:16.772Z,3.18
2019-03-31T17:45:04.019Z,1.79
2019-03-31T17:50:24.217Z,1.45
2019-03-31T17:55:12.580Z,1.17
2019-03-31T18:00:19.923Z,1.31
2019-03-31T18:05:27.041Z,1.08
2019-03-31T18:10:48.226Z,1.59
2019-03-31T18:15:49.349Z,1.35
2019-03-31T18:20:49.710Z,1.93
2019-03-31T18:25:37.022Z,1.31
2019-03-31T18:30:57.475Z,1.49
2019-03-31T18:35:45.669Z,1.45
2019-03-31T18:41:07.175Z,1.48
2019-03-31T18:46:07.367Z,1.98
2019-03-31T18:55:59.111Z,1.12
2019-03-31T19:01:06.580Z,1.30
2019-03-31T19:06:15.055Z,1.63
2019-03-31T19:11:22.830Z,1.61
2019-03-31T19:16:30.115Z,1.56
2019-03-31T19:21:51.185Z,1.72
2019-03-31T19:26:48.381Z,2.45
2019-03-31T19:31:59.810Z,1.86
2019-03-31T19:36:59.934Z,1.73
2019-03-31T19:47:04.687Z,1.59
2019-03-31T19:51:51.843Z,1.57
2019-03-31T19:57:00.022Z,1.45
2019-03-31T20:02:08.221Z,1.94
2019-03-31T20:07:09.706Z,1.76
2019-03-31T20:12:16.968Z,1.90
2019-03-31T20:17:25.314Z,1.95
2019-03-31T20:22:47.656Z,1.98
2019-03-31T20:27:45.509Z,1.66
2019-03-31T20:37:37.465Z,2.04
2019-03-31T20:42:45.782Z,2.20
2019-03-31T20:47:52.881Z,2.31
2019-03-31T20:53:14.033Z,1.51
2019-03-31T20:58:02.149Z,1.96
2019-03-31T21:03:10.522Z,1.57
2019-03-31T21:08:18.635Z,1.54
2019-03-31T21:13:25.901Z,1.35
2019-03-31T21:18:47.085Z,1.45
2019-03-31T21:23:34.479Z,1.44
2019-03-31T21:28:42.600Z,1.40
2019-03-31T21:34:02.709Z,1.47
2019-03-31T21:38:51.036Z,1.62
2019-03-31T21:44:12.259Z,1.71
2019-03-31T21:49:12.470Z,1.50
2019-03-31T21:54:12.693Z,1.35
2019-03-31T21:59:00.042Z,1.60
2019-03-31T22:04:07.180Z,1.92
2019-03-31T22:09:15.319Z,1.09
2019-03-31T22:14:23.920Z,1.35
2019-03-31T22:19:31.006Z,1.53
2019-03-31T22:24:52.246Z,1.46
2019-03-31T22:29:39.499Z,1.60
2019-03-31T22:34:48.026Z,1.99
2019-03-31T22:39:55.206Z,2.56
2019-03-31T22:45:16.522Z,1.66
2019-03-31T22:50:03.730Z,1.68
2019-03-31T22:55:10.910Z,2.43
2019-03-31T23:00:19.008Z,1.85
2019-03-31T23:05:27.336Z,2.02
2019-03-31T23:10:47.313Z,1.53
2019-03-31T23:15:35.822Z,1.72
2019-03-31T23:20:43.031Z,1.53
2019-03-31T23:25:50.395Z,2.07
2019-03-31T23:30:57.586Z,1.59
2019-03-31T23:36:05.853Z,1.71
2019-03-31T23:41:14.035Z,1.52
2019-03-31T23:46:34.534Z,2.02
2019-03-31T23:51:21.693Z,1.55
2019-03-31T23:56:30.345Z,1.67
